Time;durP1;ratioP1;P1;durP2;ratioP2;P2;SDS_P1;SDS_P2;PMS_P1;PMS_P2;Temp;Humidity;BMP_temperature;BMP_pressure;BME280_temperature;BME280_humidity;BME280_pressure;Samples;Min_cycle;Max_cycle;Signal;HPM_P1;HPM_P2
2022/10/20 00:01:53;;;;;;;31.52;23.33;;;12.90;89.50;;;;;;5028024;28;20057;-82
2022/10/20 00:04:19;;;;;;;32.97;23.67;;;12.90;89.50;;;;;;5028976;28;20112;-84
2022/10/20 00:06:44;;;;;;;28.85;22.00;;;12.90;89.60;;;;;;5033725;28;20030;-82
2022/10/20 00:09:10;;;;;;;29.08;23.02;;;12.90;89.60;;;;;;5030184;28;20062;-83
2022/10/20 00:11:36;;;;;;;30.55;22.92;;;12.80;89.60;;;;;;5031878;28;20481;-82
2022/10/20 00:14:03;;;;;;;29.23;21.88;;;12.80;89.60;;;;;;5028510;28;20026;-82
2022/10/20 00:16:30;;;;;;;30.00;23.20;;;12.90;89.80;;;;;;5030349;28;20056;-82
2022/10/20 00:18:57;;;;;;;33.28;22.92;;;12.80;89.60;;;;;;5036753;28;20033;-81
2022/10/20 00:21:25;;;;;;;32.17;23.88;;;12.80;89.70;;;;;;5030301;28;20051;-82
2022/10/20 00:23:51;;;;;;;29.08;22.48;;;12.80;89.70;;;;;;5031278;28;20039;-82
2022/10/20 00:26:20;;;;;;;32.30;22.63;;;12.80;89.70;;;;;;5036799;28;20590;-82
2022/10/20 00:28:46;;;;;;;34.38;23.00;;;12.80;89.80;;;;;;5033636;28;20065;-82
2022/10/20 00:31:12;;;;;;;31.95;22.73;;;12.80;89.80;;;;;;5027943;28;20085;-82
2022/10/20 00:33:38;;;;;;;29.30;22.88;;;12.70;89.80;;;;;;5033005;28;20091;-82
2022/10/20 00:36:06;;;;;;;29.02;22.02;;;12.70;89.90;;;;;;5036000;28;20041;-83
2022/10/20 00:38:32;;;;;;;30.75;21.80;;;12.70;89.90;;;;;;5036359;28;20124;-81
2022/10/20 00:40:59;;;;;;;29.85;23.27;;;12.70;89.90;;;;;;5039954;28;20037;-82
2022/10/20 00:43:42;;;;;;;27.48;21.83;;;12.60;89.90;;;;;;5037915;28;20026;-85
2022/10/20 00:46:10;;;;;;;26.20;21.92;;;12.70;90.10;;;;;;5029419;28;20045;-86
2022/10/20 00:48:36;;;;;;;31.80;23.65;;;12.70;90.10;;;;;;5018883;28;20135;-82
2022/10/20 00:51:02;;;;;;;28.02;21.85;;;12.70;90.10;;;;;;5032080;28;20481;-82
2022/10/20 00:53:29;;;;;;;31.17;22.35;;;12.70;90.10;;;;;;5030956;28;20041;-86
2022/10/20 00:55:56;;;;;;;28.55;21.65;;;12.70;90.30;;;;;;5029860;28;20042;-81
2022/10/20 00:58:23;;;;;;;31.98;21.98;;;12.70;90.30;;;;;;5039820;28;20044;-90
2022/10/20 01:00:55;;;;;;;27.40;20.83;;;12.80;90.40;;;;;;5048984;28;20033;-84
2022/10/20 01:03:29;;;;;;;29.00;21.35;;;12.80;90.30;;;;;;5031596;28;20513;-82
2022/10/20 01:05:55;;;;;;;29.48;21.95;;;12.90;90.30;;;;;;5022871;28;20029;-82
2022/10/20 01:08:20;;;;;;;28.17;21.33;;;12.80;90.20;;;;;;5030299;28;20045;-82
2022/10/20 01:10:54;;;;;;;26.75;21.85;;;12.90;90.30;;;;;;5031151;28;20432;-82
2022/10/20 01:13:38;;;;;;;26.20;19.95;;;12.90;90.20;;;;;;5030940;28;20034;-83
2022/10/20 01:16:12;;;;;;;25.88;20.42;;;12.90;90.20;;;;;;5026821;28;20041;-83
2022/10/20 01:18:56;;;;;;;27.05;21.00;;;12.90;90.20;;;;;;5030649;28;20121;-85
2022/10/20 01:21:37;;;;;;;29.67;20.08;;;13.00;90.10;;;;;;5034489;28;20778;-83
2022/10/20 01:24:17;;;;;;;26.23;20.88;;;13.00;90.00;;;;;;5040482;28;20149;-86
2022/10/20 01:27:13;;;;;;;28.60;21.23;;;13.00;90.00;;;;;;5030930;28;20069;-82
2022/10/20 01:29:52;;;;;;;26.08;21.10;;;12.90;89.90;;;;;;5026682;28;20048;-86
2022/10/20 01:32:42;;;;;;;25.95;20.40;;;12.90;90.00;;;;;;5022786;28;20041;-86
2022/10/20 01:35:41;;;;;;;24.10;19.13;;;12.90;90.10;;;;;;5022100;28;20052;-85
2022/10/20 01:38:25;;;;;;;27.77;20.63;;;12.90;90.10;;;;;;5028465;28;20049;-83
2022/10/20 01:40:59;;;;;;;25.20;20.60;;;12.90;90.10;;;;;;5031514;28;20112;-82
2022/10/20 01:43:28;;;;;;;27.45;20.33;;;12.90;90.10;;;;;;5028354;28;20034;-82
2022/10/20 01:45:57;;;;;;;30.48;21.33;;;13.00;90.20;;;;;;5025095;28;20040;-82
2022/10/20 01:48:26;;;;;;;30.25;21.92;;;13.00;90.00;;;;;;5037298;28;20433;-83
2022/10/20 01:50:52;;;;;;;24.88;20.40;;;13.00;90.10;;;;;;5013362;28;20065;-83
2022/10/20 01:53:19;;;;;;;25.38;19.33;;;13.00;90.00;;;;;;5030788;28;20069;-83
2022/10/20 01:55:44;;;;;;;27.50;20.42;;;13.00;90.00;;;;;;5022905;28;20560;-83
2022/10/20 01:58:25;;;;;;;26.70;20.80;;;12.90;90.10;;;;;;5028489;28;20136;-82
2022/10/20 02:00:53;;;;;;;27.02;20.13;;;13.00;90.00;;;;;;5030611;28;20542;-81
2022/10/20 02:03:43;;;;;;;25.92;19.73;;;13.00;90.00;;;;;;5026117;28;20349;-83
2022/10/20 02:06:28;;;;;;;26.13;20.15;;;13.00;90.00;;;;;;5023152;28;20144;-86
2022/10/20 02:09:00;;;;;;;25.48;18.23;;;12.90;90.00;;;;;;5027533;28;20119;-83
2022/10/20 02:11:34;;;;;;;26.42;20.05;;;13.00;90.00;;;;;;5031424;28;20397;-83
2022/10/20 02:14:02;;;;;;;25.73;20.45;;;13.00;90.10;;;;;;5029466;28;20072;-84
2022/10/20 02:16:54;;;;;;;26.40;19.63;;;12.90;90.10;;;;;;5029802;28;20052;-82
2022/10/20 02:19:23;;;;;;;23.05;18.35;;;13.00;90.10;;;;;;5021723;28;20513;-86
2022/10/20 02:21:51;;;;;;;24.40;18.67;;;13.00;90.10;;;;;;5012884;28;20034;-88
2022/10/20 02:24:19;;;;;;;22.92;18.13;;;12.90;90.00;;;;;;5046327;28;20139;-89
2022/10/20 02:26:44;;;;;;;22.80;17.85;;;12.90;90.10;;;;;;5028695;28;20429;-82
2022/10/20 02:29:14;;;;;;;26.20;19.67;;;12.80;90.10;;;;;;5024893;28;20042;-83
2022/10/20 02:31:41;;;;;;;25.80;18.98;;;12.80;90.10;;;;;;5029499;28;20037;-82
2022/10/20 02:34:07;;;;;;;25.58;19.73;;;12.80;90.00;;;;;;5027328;28;20116;-82
2022/10/20 02:36:38;;;;;;;23.45;19.40;;;12.80;90.00;;;;;;5028552;28;20491;-85
2022/10/20 02:39:03;;;;;;;22.80;18.80;;;12.70;90.10;;;;;;5026923;28;20037;-84
2022/10/20 02:41:30;;;;;;;26.13;19.85;;;12.70;90.10;;;;;;5025365;28;20052;-83
2022/10/20 02:43:55;;;;;;;26.17;19.85;;;12.60;90.10;;;;;;5023467;28;20056;-82
2022/10/20 02:46:22;;;;;;;27.63;20.08;;;12.60;90.10;;;;;;5026566;28;20485;-82
2022/10/20 02:48:47;;;;;;;27.10;20.27;;;12.70;90.10;;;;;;5024437;28;20042;-82
2022/10/20 02:51:13;;;;;;;25.63;19.88;;;12.60;90.00;;;;;;5026800;28;20287;-83
2022/10/20 02:53:39;;;;;;;25.55;20.25;;;12.60;89.90;;;;;;5024446;28;20389;-86
2022/10/20 02:56:05;;;;;;;24.90;18.90;;;12.60;90.00;;;;;;5028061;28;20041;-82
2022/10/20 02:58:31;;;;;;;27.45;20.50;;;12.60;90.00;;;;;;5027325;28;20041;-82
2022/10/20 03:00:56;;;;;;;29.60;20.08;;;12.60;90.00;;;;;;5023279;28;20123;-83
2022/10/20 03:03:22;;;;;;;26.85;20.48;;;12.60;90.10;;;;;;5028246;28;20042;-82
2022/10/20 03:05:47;;;;;;;29.02;20.02;;;12.60;90.00;;;;;;5027821;28;20037;-82
2022/10/20 03:08:14;;;;;;;25.60;20.00;;;12.60;90.00;;;;;;5044272;28;20057;-88
2022/10/20 03:10:40;;;;;;;30.90;21.80;;;12.60;90.00;;;;;;5042988;28;20041;-89
2022/10/20 03:13:06;;;;;;;26.23;20.85;;;12.60;90.10;;;;;;5047229;28;20089;-86
2022/10/20 03:15:32;;;;;;;27.58;20.20;;;12.60;90.20;;;;;;5032182;28;20061;-81
2022/10/20 03:17:58;;;;;;;24.27;19.42;;;12.60;90.20;;;;;;5030603;28;20041;-82
2022/10/20 03:20:23;;;;;;;26.15;19.58;;;12.60;90.10;;;;;;5031299;28;20481;-82
2022/10/20 03:22:49;;;;;;;28.02;21.27;;;12.60;90.20;;;;;;5033817;28;20350;-84
2022/10/20 03:25:14;;;;;;;26.00;20.35;;;12.60;90.30;;;;;;5032993;28;20136;-82
2022/10/20 03:27:40;;;;;;;27.10;19.40;;;12.60;90.40;;;;;;5031576;28;20030;-82
2022/10/20 03:30:06;;;;;;;24.33;19.42;;;12.60;90.30;;;;;;5032798;28;20469;-82
2022/10/20 03:32:32;;;;;;;27.13;19.95;;;12.60;90.20;;;;;;5029371;28;20026;-82
2022/10/20 03:34:58;;;;;;;27.23;19.63;;;12.60;90.20;;;;;;5031374;28;20041;-83
2022/10/20 03:37:23;;;;;;;26.30;19.85;;;12.60;90.30;;;;;;5029825;28;20045;-83
2022/10/20 03:39:49;;;;;;;27.83;21.15;;;12.60;90.30;;;;;;5032687;28;20425;-82
2022/10/20 03:42:14;;;;;;;27.67;19.92;;;12.60;90.30;;;;;;5032407;28;20866;-82
2022/10/20 03:44:40;;;;;;;25.65;20.05;;;12.60;90.40;;;;;;5032200;28;20030;-82
2022/10/20 03:47:06;;;;;;;29.25;21.58;;;12.60;90.40;;;;;;5032874;28;20096;-85
2022/10/20 03:49:32;;;;;;;29.75;21.42;;;12.60;90.40;;;;;;5037705;28;20057;-82
2022/10/20 03:51:58;;;;;;;24.25;19.27;;;12.60;90.50;;;;;;5044129;28;20036;-82
2022/10/20 03:54:24;;;;;;;27.05;20.30;;;12.60;90.50;;;;;;5050570;28;20061;-84
2022/10/20 03:56:49;;;;;;;27.08;21.42;;;12.60;90.50;;;;;;5055809;28;20033;-87
2022/10/20 03:59:15;;;;;;;28.05;20.83;;;12.60;90.60;;;;;;5057067;28;20045;-82
2022/10/20 04:01:44;;;;;;;27.00;20.65;;;12.70;90.60;;;;;;5024991;28;20048;-83
2022/10/20 04:04:09;;;;;;;28.67;22.48;;;12.70;90.60;;;;;;5031948;28;20112;-84
2022/10/20 04:06:35;;;;;;;27.80;21.23;;;12.70;90.70;;;;;;5031614;28;20120;-83
2022/10/20 04:09:01;;;;;;;28.05;20.50;;;12.70;90.70;;;;;;5036879;28;20442;-81
2022/10/20 04:11:27;;;;;;;27.42;20.52;;;12.70;90.70;;;;;;5033827;28;20465;-80
2022/10/20 04:13:53;;;;;;;28.02;20.90;;;12.70;90.80;;;;;;5035375;28;20057;-82
2022/10/20 04:16:19;;;;;;;28.27;20.33;;;12.80;90.80;;;;;;5029881;28;20040;-82
2022/10/20 04:18:44;;;;;;;26.73;20.85;;;12.80;90.60;;;;;;5030681;28;20037;-82
2022/10/20 04:21:10;;;;;;;26.73;20.60;;;12.80;90.60;;;;;;5031581;28;20057;-85
2022/10/20 04:23:36;;;;;;;24.20;19.25;;;12.80;90.60;;;;;;5022810;28;20084;-83
2022/10/20 04:26:12;;;;;;;28.90;20.48;;;12.80;90.70;;;;;;5031494;28;20490;-84
2022/10/20 04:28:38;;;;;;;25.05;20.40;;;12.80;90.60;;;;;;5020742;28;20092;-89
2022/10/20 04:31:05;;;;;;;25.50;19.17;;;12.80;90.60;;;;;;5029034;28;20068;-83
2022/10/20 04:33:31;;;;;;;26.48;19.35;;;12.80;90.60;;;;;;5023654;28;20503;-86
2022/10/20 04:36:02;;;;;;;27.15;19.50;;;12.80;90.60;;;;;;5028295;28;20116;-82
2022/10/20 04:38:31;;;;;;;28.27;20.30;;;12.80;90.60;;;;;;5041356;28;20049;-83
2022/10/20 04:40:59;;;;;;;24.73;19.60;;;12.80;90.70;;;;;;5030420;28;20100;-82
2022/10/20 04:43:25;;;;;;;27.13;19.58;;;12.80;90.70;;;;;;5024027;28;20128;-83
2022/10/20 04:45:52;;;;;;;25.70;19.48;;;12.80;90.60;;;;;;5035495;28;20120;-84
2022/10/20 04:48:19;;;;;;;27.40;20.38;;;12.80;90.60;;;;;;5024392;28;20396;-86
2022/10/20 04:50:44;;;;;;;25.90;20.10;;;12.80;90.60;;;;;;5025684;28;20030;-84
2022/10/20 04:53:10;;;;;;;24.58;18.63;;;12.80;90.60;;;;;;5030684;28;20169;-84
2022/10/20 04:55:36;;;;;;;27.05;19.30;;;12.80;90.60;;;;;;5028196;28;20525;-87
2022/10/20 04:58:01;;;;;;;27.15;21.05;;;12.80;90.60;;;;;;5026333;28;20458;-82
2022/10/20 05:00:28;;;;;;;27.83;20.88;;;12.80;90.60;;;;;;5034427;28;20038;-82
2022/10/20 05:02:54;;;;;;;27.75;20.50;;;12.80;90.60;;;;;;5026746;28;20021;-83
2022/10/20 05:05:20;;;;;;;26.83;18.90;;;12.80;90.60;;;;;;5025233;28;20034;-83
2022/10/20 05:07:45;;;;;;;25.45;20.48;;;12.80;90.60;;;;;;5027805;28;20041;-83
2022/10/20 05:10:11;;;;;;;25.13;20.08;;;12.80;90.60;;;;;;5032812;28;20218;-84
2022/10/20 05:12:36;;;;;;;27.25;19.55;;;12.80;90.70;;;;;;5035346;28;20022;-91
2022/10/20 05:15:02;;;;;;;24.98;19.90;;;12.80;90.70;;;;;;5048652;28;20037;-86
2022/10/20 05:17:29;;;;;;;26.70;20.00;;;12.80;90.60;;;;;;5035811;28;20362;-83
2022/10/20 05:19:55;;;;;;;25.50;21.40;;;12.80;90.60;;;;;;5025769;28;20210;-84
2022/10/20 05:22:21;;;;;;;29.25;21.15;;;12.80;90.60;;;;;;5025988;28;20053;-83
2022/10/20 05:24:46;;;;;;;26.70;19.98;;;12.80;90.70;;;;;;5029864;28;20632;-86
2022/10/20 05:27:12;;;;;;;26.88;20.85;;;12.80;90.70;;;;;;5028976;28;20523;-80
2022/10/20 05:29:37;;;;;;;27.08;20.40;;;12.80;90.70;;;;;;5023737;28;20156;-79
2022/10/20 05:32:03;;;;;;;34.10;26.02;;;12.80;90.70;;;;;;5021570;28;20029;-82
2022/10/20 05:34:29;;;;;;;27.40;22.27;;;12.70;90.70;;;;;;5025718;28;20073;-80
2022/10/20 05:36:54;;;;;;;26.15;19.95;;;12.80;90.70;;;;;;5021264;28;20032;-82
2022/10/20 05:39:20;;;;;;;29.02;20.40;;;12.80;90.70;;;;;;5023556;28;20421;-80
2022/10/20 05:41:46;;;;;;;24.88;19.88;;;12.80;90.70;;;;;;5019522;28;20041;-82
2022/10/20 05:44:12;;;;;;;25.08;19.02;;;12.80;90.70;;;;;;5038955;28;20095;-83
2022/10/20 05:46:40;;;;;;;30.60;20.63;;;12.80;90.70;;;;;;5031131;28;20033;-83
2022/10/20 05:49:06;;;;;;;25.17;19.77;;;12.90;90.60;;;;;;5024356;28;20346;-80
2022/10/20 05:51:35;;;;;;;25.25;19.42;;;12.90;90.60;;;;;;5018840;28;20072;-80
2022/10/20 05:54:01;;;;;;;22.52;18.05;;;12.90;90.60;;;;;;5015891;28;20057;-80
2022/10/20 05:56:28;;;;;;;24.27;20.15;;;12.90;90.60;;;;;;5029853;28;20369;-80
2022/10/20 05:58:54;;;;;;;25.08;19.27;;;12.90;90.60;;;;;;5024582;28;20026;-79
2022/10/20 06:01:23;;;;;;;25.50;19.67;;;12.90;90.60;;;;;;5029461;28;20100;-83
2022/10/20 06:03:57;;;;;;;27.50;20.58;;;12.90;90.60;;;;;;5026947;28;20037;-82
2022/10/20 06:06:27;;;;;;;23.53;19.10;;;12.90;90.60;;;;;;5020484;28;20112;-80
2022/10/20 06:08:55;;;;;;;23.75;18.63;;;12.90;90.70;;;;;;5023371;28;20048;-80
2022/10/20 06:11:21;;;;;;;25.80;20.15;;;12.90;90.70;;;;;;5027840;28;21900;-82
2022/10/20 06:13:47;;;;;;;23.48;19.70;;;13.00;90.60;;;;;;5028787;28;20033;-80
2022/10/20 06:16:16;;;;;;;27.17;19.90;;;13.00;90.70;;;;;;5024233;28;20088;-82
2022/10/20 06:18:42;;;;;;;27.15;20.83;;;13.00;90.70;;;;;;5018454;28;20048;-82
2022/10/20 06:21:22;;;;;;;27.40;21.63;;;13.10;90.70;;;;;;5021749;28;20060;-85
2022/10/20 06:23:49;;;;;;;22.83;17.88;;;13.10;90.60;;;;;;5026533;28;20038;-81
2022/10/20 06:26:20;;;;;;;22.58;18.77;;;13.10;90.60;;;;;;5028373;28;20049;-81
2022/10/20 06:28:48;;;;;;;26.70;20.20;;;13.10;90.60;;;;;;5031267;28;20065;-83
2022/10/20 06:31:19;;;;;;;27.00;20.52;;;13.10;90.60;;;;;;5024594;28;20036;-80
2022/10/20 06:33:45;;;;;;;22.88;19.20;;;13.20;90.80;;;;;;5023814;28;20034;-84
2022/10/20 06:36:12;;;;;;;24.98;19.05;;;13.30;90.80;;;;;;5025548;28;20453;-80
2022/10/20 06:38:39;;;;;;;26.92;20.65;;;13.30;90.70;;;;;;5024667;28;20037;-82
2022/10/20 06:41:06;;;;;;;28.20;20.83;;;13.40;90.90;;;;;;5021209;28;20034;-81
2022/10/20 06:43:32;;;;;;;29.52;22.63;;;13.40;91.00;;;;;;5018327;28;20121;-80
2022/10/20 06:45:59;;;;;;;30.45;23.48;;;13.60;91.30;;;;;;5025153;28;20123;-79
2022/10/20 06:48:26;;;;;;;32.58;23.50;;;13.70;91.70;;;;;;5017852;28;20053;-81
2022/10/20 06:50:59;;;;;;;30.25;22.58;;;13.90;91.70;;;;;;5023637;28;20093;-81
2022/10/20 06:53:26;;;;;;;27.20;22.10;;;14.00;91.60;;;;;;5020774;28;20129;-81
2022/10/20 06:56:06;;;;;;;30.10;22.95;;;14.10;91.80;;;;;;5023680;28;20036;-80
2022/10/20 06:58:36;;;;;;;25.73;19.63;;;14.30;91.70;;;;;;5034643;28;20111;-80
2022/10/20 07:01:06;;;;;;;30.80;22.27;;;14.30;91.40;;;;;;5023829;28;20043;-83
2022/10/20 07:03:34;;;;;;;26.23;20.15;;;14.40;91.40;;;;;;5025534;28;20133;-81
2022/10/20 07:06:01;;;;;;;25.20;19.67;;;14.50;91.30;;;;;;5025539;28;20048;-80
2022/10/20 07:08:29;;;;;;;25.60;19.33;;;14.60;91.10;;;;;;5035275;28;20041;-83
2022/10/20 07:11:16;;;;;;;28.35;20.55;;;14.50;91.00;;;;;;5035049;28;20480;-80
2022/10/20 07:13:42;;;;;;;30.58;20.35;;;14.60;91.00;;;;;;5024172;28;20117;-83
2022/10/20 07:16:11;;;;;;;28.30;19.70;;;14.60;91.10;;;;;;5022173;28;20133;-81
2022/10/20 07:18:37;;;;;;;25.50;18.50;;;14.70;91.00;;;;;;5018158;28;20037;-80
2022/10/20 07:21:06;;;;;;;25.50;19.35;;;14.70;90.80;;;;;;5020228;28;20120;-82
2022/10/20 07:23:33;;;;;;;25.92;18.52;;;14.80;90.90;;;;;;5024964;28;20048;-80
2022/10/20 07:26:07;;;;;;;24.60;19.77;;;14.80;90.80;;;;;;5012889;28;20496;-80
2022/10/20 07:28:34;;;;;;;28.30;19.48;;;14.90;90.80;;;;;;5030980;28;20049;-82
2022/10/20 07:31:08;;;;;;;25.25;18.42;;;14.90;90.80;;;;;;5026292;28;20128;-80
2022/10/20 07:33:34;;;;;;;;;;;14.90;90.80;;;;;;5041811;28;20026;-80
2022/10/20 07:36:00;;;;;;;27.15;20.35;;;15.00;90.70;;;;;;5021507;28;19971;-81
2022/10/20 07:38:26;;;;;;;27.67;18.80;;;14.90;90.70;;;;;;5019626;28;20037;-80
2022/10/20 07:40:52;;;;;;;30.98;19.98;;;15.00;90.70;;;;;;5021606;28;20116;-81
2022/10/20 07:43:18;;;;;;;26.00;19.35;;;14.90;90.70;;;;;;5022107;28;20137;-83
2022/10/20 07:45:44;;;;;;;29.15;20.77;;;15.00;90.80;;;;;;5019197;28;20041;-80
2022/10/20 07:48:09;;;;;;;26.67;20.05;;;15.00;90.90;;;;;;5019321;28;20658;-79
2022/10/20 07:50:36;;;;;;;28.77;20.00;;;15.00;90.90;;;;;;5020971;28;20953;-79
2022/10/20 07:53:05;;;;;;;26.77;18.83;;;15.10;91.00;;;;;;5023004;28;20037;-80
2022/10/20 07:55:31;;;;;;;25.00;19.38;;;15.10;91.00;;;;;;5022694;28;20080;-80
2022/10/20 07:57:56;;;;;;;24.45;17.77;;;15.10;91.00;;;;;;5027534;28;20576;-81
2022/10/20 08:00:22;;;;;;;21.98;17.80;;;15.10;91.00;;;;;;5025829;28;20149;-79
2022/10/20 08:02:48;;;;;;;21.15;18.48;;;15.10;91.00;;;;;;5027008;28;20036;-82
2022/10/20 08:05:13;;;;;;;25.92;19.85;;;15.10;91.10;;;;;;5021585;28;20065;-79
2022/10/20 08:07:39;;;;;;;28.77;19.92;;;15.20;91.10;;;;;;5018602;28;20047;-80
2022/10/20 08:10:06;;;;;;;30.52;20.25;;;15.20;91.20;;;;;;5025456;28;20038;-77
2022/10/20 08:12:32;;;;;;;28.13;20.35;;;15.30;91.20;;;;;;5028188;28;20041;-80
2022/10/20 08:14:57;;;;;;;27.13;19.65;;;15.20;91.30;;;;;;5022134;28;20429;-80
2022/10/20 08:17:24;;;;;;;27.48;20.02;;;15.30;91.40;;;;;;5025324;28;20409;-81
2022/10/20 08:19:50;;;;;;;25.48;19.35;;;15.30;91.40;;;;;;5025636;28;20037;-80
2022/10/20 08:22:17;;;;;;;25.90;20.33;;;15.30;91.40;;;;;;5022516;28;20026;-80
2022/10/20 08:24:43;;;;;;;25.23;19.95;;;15.30;91.50;;;;;;5023572;28;20386;-78
2022/10/20 08:27:09;;;;;;;26.33;20.35;;;15.30;91.50;;;;;;5022487;28;20060;-80
2022/10/20 08:29:35;;;;;;;32.97;22.90;;;15.30;91.60;;;;;;5025696;28;20411;-78
2022/10/20 08:32:01;;;;;;;27.48;22.38;;;15.30;91.60;;;;;;5019971;28;20658;-79
2022/10/20 08:34:27;;;;;;;29.63;20.25;;;15.40;91.70;;;;;;5020639;28;20148;-80
2022/10/20 08:36:52;;;;;;;25.35;20.02;;;15.40;91.70;;;;;;5029785;28;20113;-79
2022/10/20 08:39:18;;;;;;;24.98;19.45;;;15.40;91.60;;;;;;5024093;28;20046;-79
2022/10/20 08:41:46;;;;;;;25.88;18.30;;;15.40;91.70;;;;;;5025306;28;20033;-79
2022/10/20 08:44:30;;;;;;;25.73;19.73;;;15.50;91.70;;;;;;5030099;28;20033;-78
2022/10/20 08:46:58;;;;;;;25.00;18.20;;;15.60;91.70;;;;;;5027664;28;20051;-79
2022/10/20 08:49:30;;;;;;;23.55;19.00;;;15.50;91.60;;;;;;5024583;28;20049;-79
2022/10/20 08:51:57;;;;;;;27.13;20.23;;;15.60;91.70;;;;;;5025394;28;20042;-80
2022/10/20 08:54:23;;;;;;;24.90;19.23;;;15.60;91.70;;;;;;5023856;28;20714;-80
2022/10/20 08:56:49;;;;;;;28.65;19.77;;;15.60;91.80;;;;;;5028354;28;20045;-79
2022/10/20 08:59:28;;;;;;;28.00;21.25;;;15.60;91.80;;;;;;5032562;28;20029;-80
2022/10/20 09:01:55;;;;;;;28.23;21.15;;;15.60;91.90;;;;;;5011617;28;20507;-82
2022/10/20 09:04:25;;;;;;;28.67;20.95;;;15.60;92.00;;;;;;5025905;28;20041;-80
2022/10/20 09:06:56;;;;;;;30.08;22.17;;;15.70;92.00;;;;;;5015270;28;20090;-79
2022/10/20 09:09:23;;;;;;;25.73;20.02;;;15.80;91.90;;;;;;5019996;28;20091;-80
2022/10/20 09:11:49;;;;;;;26.90;21.02;;;15.70;91.90;;;;;;5027198;28;20551;-79
2022/10/20 09:14:15;;;;;;;26.77;20.45;;;15.80;91.90;;;;;;5017320;28;20128;-79
2022/10/20 09:16:45;;;;;;;26.63;20.75;;;15.80;92.00;;;;;;5022331;28;20121;-82
2022/10/20 09:19:21;;;;;;;30.60;21.73;;;15.90;91.90;;;;;;5021037;28;20034;-80
2022/10/20 09:21:52;;;;;;;27.08;20.85;;;16.00;92.00;;;;;;5021324;28;20068;-79
2022/10/20 09:24:21;;;;;;;29.83;20.35;;;16.10;92.00;;;;;;5020699;28;20038;-80
2022/10/20 09:26:48;;;;;;;24.88;19.65;;;16.10;92.00;;;;;;5021543;28;20034;-79
2022/10/20 09:29:19;;;;;;;23.42;19.55;;;16.30;92.10;;;;;;5021207;28;20068;-79
2022/10/20 09:31:48;;;;;;;28.40;20.15;;;16.50;92.10;;;;;;5022891;28;20025;-80
2022/10/20 09:34:28;;;;;;;28.17;20.63;;;16.60;91.60;;;;;;5023580;28;20037;-79
2022/10/20 09:37:05;;;;;;;29.00;20.58;;;16.70;91.40;;;;;;5031206;28;20485;-79
2022/10/20 09:39:49;;;;;;;23.23;19.13;;;16.80;91.00;;;;;;5022432;28;20151;-80
2022/10/20 09:42:36;;;;;;;23.65;18.80;;;16.80;90.80;;;;;;5032843;28;20033;-81
2022/10/20 09:45:15;;;;;;;29.88;19.50;;;16.80;90.60;;;;;;5021290;28;20037;-80
2022/10/20 09:47:47;;;;;;;27.00;18.98;;;16.90;90.40;;;;;;5021645;28;20079;-80
2022/10/20 09:50:27;;;;;;;26.73;17.58;;;16.90;90.30;;;;;;5027262;28;20533;-79
2022/10/20 09:52:54;;;;;;;24.05;16.83;;;16.90;90.30;;;;;;5021859;28;20033;-80
2022/10/20 09:55:30;;;;;;;24.25;18.15;;;16.80;90.20;;;;;;5019994;28;20417;-80
2022/10/20 09:57:59;;;;;;;24.77;19.20;;;16.80;90.30;;;;;;5022498;28;20124;-79
2022/10/20 10:00:38;;;;;;;24.65;18.00;;;16.80;90.10;;;;;;5029831;28;20044;-79
2022/10/20 10:03:22;;;;;;;24.55;18.42;;;16.80;90.30;;;;;;5025964;28;20454;-81
2022/10/20 10:05:58;;;;;;;26.70;19.83;;;16.80;90.40;;;;;;5016878;28;20102;-79
2022/10/20 10:08:29;;;;;;;29.48;20.42;;;16.90;90.20;;;;;;5023300;28;20045;-79
2022/10/20 10:11:03;;;;;;;26.00;20.25;;;17.00;90.10;;;;;;5027301;28;20037;-81
2022/10/20 10:13:30;;;;;;;;;;;17.20;89.80;;;;;;5024812;28;20034;-81
2022/10/20 10:16:03;;;;;;;33.50;20.80;;;17.20;89.80;;;;;;5041737;28;19993;-79
2022/10/20 10:18:29;;;;;;;26.58;20.48;;;17.50;89.70;;;;;;5043451;28;20033;-80
2022/10/20 10:21:10;;;;;;;27.58;20.95;;;17.60;89.30;;;;;;5034576;28;20041;-79
2022/10/20 10:23:51;;;;;;;28.30;21.85;;;17.70;88.60;;;;;;5024767;28;20049;-81
2022/10/20 10:26:44;;;;;;;24.73;19.02;;;17.80;88.70;;;;;;5013417;28;20045;-83
2022/10/20 10:29:38;;;;;;;24.55;18.75;;;17.90;88.20;;;;;;5013248;28;20120;-81
2022/10/20 10:32:26;;;;;;;26.10;20.17;;;18.00;88.10;;;;;;5014878;28;20463;-83
2022/10/20 10:35:21;;;;;;;25.25;19.45;;;18.10;87.50;;;;;;5014697;28;20072;-80
2022/10/20 10:37:47;;;;;;;26.45;20.70;;;18.10;87.40;;;;;;5018129;28;20449;-82
2022/10/20 10:40:28;;;;;;;22.83;19.90;;;18.00;87.30;;;;;;5014807;28;20037;-82
2022/10/20 10:43:28;;;;;;;27.10;21.20;;;18.00;87.50;;;;;;5015526;28;20132;-81
2022/10/20 10:46:18;;;;;;;29.67;21.85;;;18.10;87.40;;;;;;5014690;28;20099;-80
2022/10/20 10:48:57;;;;;;;29.20;23.00;;;18.10;87.50;;;;;;5011456;28;20037;-81
2022/10/20 10:51:48;;;;;;;29.52;24.05;;;18.20;86.80;;;;;;5015302;28;20113;-79
2022/10/20 10:54:52;;;;;;;28.08;23.63;;;18.30;86.50;;;;;;5016068;28;20379;-81
2022/10/20 10:57:54;;;;;;;29.48;22.08;;;18.30;86.60;;;;;;5019062;28;20477;-81
2022/10/20 11:00:43;;;;;;;26.92;22.10;;;18.20;86.50;;;;;;5011771;28;20084;-81
2022/10/20 11:03:30;;;;;;;28.67;22.88;;;18.20;86.30;;;;;;5031791;28;20026;-80
2022/10/20 11:06:18;;;;;;;26.60;22.58;;;18.10;86.50;;;;;;5014578;28;20045;-81
2022/10/20 11:08:58;;;;;;;27.65;21.45;;;18.10;86.70;;;;;;5021244;28;20045;-81
2022/10/20 11:11:57;;;;;;;26.40;22.85;;;18.10;86.90;;;;;;5017594;28;20433;-81
2022/10/20 11:14:43;;;;;;;29.55;20.65;;;18.20;86.90;;;;;;5021907;28;20117;-80
2022/10/20 11:17:30;;;;;;;24.08;18.70;;;18.10;86.60;;;;;;5020776;28;20532;-83
2022/10/20 11:20:28;;;;;;;23.92;18.80;;;18.20;86.70;;;;;;5028535;28;20025;-81
2022/10/20 11:23:00;;;;;;;22.92;17.75;;;18.20;86.50;;;;;;5018448;28;20052;-81
2022/10/20 11:25:43;;;;;;;28.08;17.30;;;18.40;86.40;;;;;;5039065;28;20616;-84
2022/10/20 11:28:43;;;;;;;21.63;16.30;;;18.50;86.10;;;;;;5029681;28;20397;-82
2022/10/20 11:31:31;;;;;;;19.38;13.98;;;18.60;85.40;;;;;;5023865;28;20033;-83
2022/10/20 11:34:00;;;;;;;19.13;14.15;;;18.60;85.50;;;;;;5004827;28;20029;-80
2022/10/20 11:36:34;;;;;;;19.02;13.23;;;18.70;85.30;;;;;;5028283;28;20106;-81
2022/10/20 11:38:59;;;;;;;17.73;12.07;;;18.80;84.70;;;;;;5022297;28;20041;-82
2022/10/20 11:41:44;;;;;;;17.88;11.27;;;18.90;84.60;;;;;;5026287;28;20060;-80
2022/10/20 11:44:29;;;;;;;14.10;10.98;;;18.80;84.00;;;;;;5022097;28;20036;-81
2022/10/20 11:47:17;;;;;;;16.55;10.50;;;19.10;84.80;;;;;;5030419;28;20108;-80
2022/10/20 11:49:43;;;;;;;16.23;9.85;;;19.30;82.90;;;;;;5026237;28;20021;-81
2022/10/20 11:52:21;;;;;;;19.55;9.88;;;19.50;82.80;;;;;;5026863;28;20380;-81
2022/10/20 11:55:18;;;;;;;15.23;9.13;;;19.60;82.10;;;;;;5018373;28;20028;-81
2022/10/20 11:58:08;;;;;;;13.95;8.55;;;19.80;82.20;;;;;;5025924;28;20025;-81
2022/10/20 12:00:59;;;;;;;12.40;8.18;;;19.80;81.30;;;;;;5027522;28;20321;-82
2022/10/20 12:03:40;;;;;;;14.95;8.65;;;19.90;80.30;;;;;;5031081;28;20535;-81
2022/10/20 12:06:23;;;;;;;12.63;8.45;;;19.90;79.90;;;;;;5017784;28;20342;-80
2022/10/20 12:09:03;;;;;;;12.77;7.85;;;20.00;79.80;;;;;;5032384;28;20045;-81
2022/10/20 12:11:56;;;;;;;17.40;8.18;;;19.90;79.60;;;;;;5027336;28;20136;-80
2022/10/20 12:14:35;;;;;;;13.98;7.57;;;19.70;80.30;;;;;;5016406;28;20037;-81
2022/10/20 12:17:22;;;;;;;14.20;8.15;;;19.80;80.10;;;;;;5010602;28;20559;-80
2022/10/20 12:19:50;;;;;;;13.90;6.97;;;19.90;80.10;;;;;;5012548;28;20021;-81
2022/10/20 12:22:15;;;;;;;13.95;7.05;;;20.10;79.10;;;;;;5012362;28;20095;-80
2022/10/20 12:24:53;;;;;;;10.65;6.82;;;20.30;78.40;;;;;;5017366;28;20448;-79
2022/10/20 12:27:23;;;;;;;10.82;6.20;;;20.50;77.30;;;;;;5016212;28;20108;-80
2022/10/20 12:30:14;;;;;;;11.75;5.05;;;20.50;76.40;;;;;;5012955;28;20041;-82
2022/10/20 12:32:52;;;;;;;9.77;5.20;;;20.40;75.30;;;;;;5016292;28;20513;-81
2022/10/20 12:35:18;;;;;;;9.77;5.50;;;20.30;75.50;;;;;;5017414;28;20153;-81
2022/10/20 12:37:54;;;;;;;11.82;5.40;;;20.50;75.60;;;;;;5009417;28;20125;-82
2022/10/20 12:40:28;;;;;;;10.85;5.50;;;20.50;75.00;;;;;;5005450;28;20312;-82
2022/10/20 12:42:54;;;;;;;;;;;20.50;75.40;;;;;;5017499;28;20341;-83
2022/10/20 12:45:38;;;;;;;8.93;5.15;;;20.60;75.30;;;;;;5017902;28;19909;-80
2022/10/20 12:48:06;;;;;;;12.27;5.20;;;20.60;75.10;;;;;;5015004;28;20455;-82
2022/10/20 12:50:38;;;;;;;11.38;5.50;;;20.70;75.20;;;;;;5027043;28;20064;-84